Etusivu
METAR-TAF:

METAR-TAF

Lentoasemat :

Area_Regional_Airport

South Haven, Michigan, Yhdysvallat

Leveyspiiri: 42-21-03N, Pituuspiiri: 086-15-22W, korkeus merenpinnasta: 203 m

Tämänhetkinen sää

Tämä raportti tehtiin 21 minuuttia sitten, kello 09.36 UTC
Tuuli 8 kn lännestä puuskistuen 14 kn:hen
Lämpötila -2°C
Kosteus 80%
Ilmanpaine 1013 hPa
Näkyvyys: 16.1 km
Pilvistä 2000 ft:n korkeudessa

METAR: KLWA 150936Z AUTO 28008G14KT 10SM OVC020 M02/M05 A2992 RMK AO2 T10191055

Aika: 04:57 (09:57 UTC)


TAF: puuttuu

Säähavainnot ja -ennusteet yli 4000 lentoasemalta (METAR- ja TAF-raportit).

Käytössä olevat sääasemat on merkitty karttaan keltaisilla ja punaisilla pisteillä.

Aseta hiiri pisteen päälle nähdäksesi sääaseman nimen.

Klikkaa sitten nähdäksesi säähavainnot ja -ennusteet.

Kartan vaihtaminen: klikkaa mustalla rastilla varustettuja vihreitä pisteitä, niin voit zoomata sisään; viivalla varustettua vihreää pistettä, niin voit zoomata ulos tai vihreitä nuolia, niin pääset viereisille kartoille.


METAR-TAF: